Fisher, Minnesota
Current Conditions -  °F | °C
As of 10:35 AM on Saturday 25 Oct 2014 (Local Time) from KCKN Reporting Station
Clear Clear  
Wind Chill: 50°   Ceiling: Unl
Heat Index: 50°   Visibility: 10mi
Dew Point: 32°   Wind: 20mph
Humidity: 50%   Direction: 310°NW
Pressure: 30.08"   Gusts: NA
Location:  47.8°N, 96.8°W
Report Text: KCKN 251535Z AUTO 31017KT 10SM CLR 10/00 A3008 RMK AO2
Loading
Personal Weather Stations






























Interactive Weather Map
Tropical Storm Tracking
New forecast layout! Learn more

10-Day Weather Forecast

Advertisements
Track Severe Weather on mobile